createdAt,value
2018-02-04T00:00:04.793Z,0.1
2018-02-04T00:05:03.288Z,0.1
2018-02-04T00:10:02.940Z,0.1
2018-02-04T00:15:02.408Z,0.1
2018-02-04T00:20:02.988Z,0.1
2018-02-04T00:25:02.690Z,0.1
2018-02-04T00:30:03.224Z,0.1
2018-02-04T00:35:02.785Z,0.1
2018-02-04T00:40:03.309Z,0.1
2018-02-04T00:45:02.745Z,0.1
2018-02-04T00:50:03.217Z,0.1
2018-02-04T00:55:02.666Z,0.0
2018-02-04T01:00:03.277Z,0.0
2018-02-04T01:05:02.848Z,0.0
2018-02-04T01:10:02.530Z,0.0
2018-02-04T01:15:03.052Z,0.0
2018-02-04T01:20:02.606Z,0.0
2018-02-04T01:25:03.152Z,0.0
2018-02-04T01:30:02.759Z,-0.3
2018-02-04T01:35:02.409Z,-0.3
2018-02-04T01:40:02.905Z,-0.3
2018-02-04T01:45:02.458Z,-0.3
2018-02-04T01:50:03.039Z,-0.3
2018-02-04T01:55:02.449Z,-0.3
2018-02-04T02:00:02.996Z,-0.3
2018-02-04T02:05:02.634Z,-0.3
2018-02-04T02:10:03.355Z,-0.3
2018-02-04T02:15:02.764Z,-0.3
2018-02-04T02:20:03.351Z,-0.3
2018-02-04T02:25:02.869Z,-0.3
2018-02-04T02:30:02.394Z,-0.3
2018-02-04T02:35:02.904Z,-0.3
2018-02-04T02:40:02.519Z,-0.3
2018-02-04T02:45:02.943Z,-0.3
2018-02-04T02:50:02.529Z,0.0
2018-02-04T02:55:03.294Z,-0.3
2018-02-04T03:00:02.935Z,0.0
2018-02-04T03:05:02.447Z,0.1
2018-02-04T03:10:02.598Z,0.0
2018-02-04T03:15:03.241Z,0.0
2018-02-04T03:20:02.843Z,0.0
2018-02-04T03:25:02.559Z,0.0
2018-02-04T03:30:03.032Z,0.1
2018-02-04T03:35:02.558Z,0.0
2018-02-04T03:40:03.053Z,0.0
2018-02-04T03:45:02.673Z,0.1
2018-02-04T03:50:03.149Z,0.1
2018-02-04T03:55:02.751Z,0.1
2018-02-04T04:00:03.705Z,0.0
2018-02-04T04:05:03.282Z,0.1
2018-02-04T04:10:02.940Z,0.0
2018-02-04T04:15:02.515Z,0.0
2018-02-04T04:20:03.024Z,0.0
2018-02-04T04:25:02.630Z,0.1
2018-02-04T04:30:03.191Z,0.0
2018-02-04T04:35:02.676Z,0.1
2018-02-04T04:40:03.168Z,0.1
2018-02-04T04:45:02.831Z,0.1
2018-02-04T04:50:03.383Z,0.1
2018-02-04T04:55:03.009Z,0.1
2018-02-04T05:00:02.561Z,0.1
2018-02-04T05:05:03.096Z,0.1
2018-02-04T05:10:02.809Z,0.1
2018-02-04T05:15:03.331Z,0.1
2018-02-04T05:20:02.828Z,0.1
2018-02-04T05:25:03.374Z,0.1
2018-02-04T05:30:03.266Z,0.1
2018-02-04T05:35:02.799Z,0.1
2018-02-04T05:40:03.370Z,0.1
2018-02-04T05:45:02.867Z,0.1
2018-02-04T05:50:02.766Z,0.1
2018-02-04T05:55:03.247Z,0.1
2018-02-04T06:00:02.778Z,0.0
2018-02-04T06:05:03.349Z,0.0
2018-02-04T06:10:02.959Z,0.0
2018-02-04T06:15:02.554Z,0.0
2018-02-04T06:20:03.056Z,0.0
2018-02-04T06:25:02.583Z,0.0
2018-02-04T06:30:03.252Z,0.0
2018-02-04T06:35:02.779Z,0.0
2018-02-04T06:40:02.450Z,0.0
2018-02-04T06:45:03.034Z,0.0
2018-02-04T06:50:02.701Z,0.0
2018-02-04T06:55:03.219Z,0.0
2018-02-04T07:00:02.848Z,0.0
2018-02-04T07:05:02.702Z,-0.3
2018-02-04T07:10:03.252Z,0.0
2018-02-04T07:15:02.716Z,0.0
2018-02-04T07:20:02.421Z,0.0
2018-02-04T07:25:02.881Z,-0.3
2018-02-04T07:30:03.344Z,-0.3
2018-02-04T07:35:02.790Z,-0.3
2018-02-04T07:40:03.342Z,-0.3
2018-02-04T07:45:02.957Z,0.0
2018-02-04T07:50:02.422Z,0.1
2018-02-04T07:55:02.961Z,0.1
2018-02-04T08:00:02.494Z,0.1
2018-02-04T08:05:03.288Z,0.1
2018-02-04T08:10:02.964Z,0.3
2018-02-04T08:15:02.433Z,0.1
2018-02-04T08:20:02.950Z,0.3
2018-02-04T08:25:02.514Z,0.3
2018-02-04T08:30:03.025Z,0.1
2018-02-04T08:35:02.659Z,0.1
2018-02-04T08:40:03.301Z,0.0
2018-02-04T08:45:02.773Z,0.1
2018-02-04T08:50:03.405Z,0.1
2018-02-04T08:55:02.943Z,0.1
2018-02-04T09:00:02.421Z,0.1
2018-02-04T09:05:03.101Z,0.1
2018-02-04T09:10:02.734Z,0.3
2018-02-04T09:15:02.413Z,0.4
2018-02-04T09:20:02.955Z,0.4
2018-02-04T09:25:02.440Z,0.4
2018-02-04T09:30:02.927Z,0.6
2018-02-04T09:35:02.428Z,0.6
2018-02-04T09:40:03.133Z,0.4
2018-02-04T09:45:02.876Z,0.4
2018-02-04T09:50:02.468Z,0.6
2018-02-04T09:55:03.052Z,0.6
2018-02-04T10:00:02.573Z,0.7
2018-02-04T10:05:03.084Z,0.7
2018-02-04T10:10:02.758Z,0.8
2018-02-04T10:15:03.225Z,0.6
2018-02-04T10:20:02.838Z,0.4
2018-02-04T10:25:02.458Z,0.3
2018-02-04T10:30:02.914Z,0.3
2018-02-04T10:35:02.610Z,0.3
2018-02-04T10:40:03.170Z,0.3
2018-02-04T10:45:02.832Z,0.1
2018-02-04T10:50:03.399Z,0.1
2018-02-04T10:55:02.927Z,0.1
2018-02-04T11:00:02.594Z,0.1
2018-02-04T11:05:03.205Z,0.1
2018-02-04T11:10:02.776Z,0.0
2018-02-04T11:15:03.248Z,0.1
2018-02-04T11:20:02.997Z,0.1
2018-02-04T11:25:02.588Z,0.1
2018-02-04T11:30:03.095Z,0.3
2018-02-04T11:35:02.565Z,0.1
2018-02-04T11:40:03.146Z,0.1
2018-02-04T11:45:02.745Z,0.3
2018-02-04T11:50:02.392Z,0.4
2018-02-04T11:55:02.940Z,0.4
2018-02-04T12:00:02.447Z,0.8
2018-02-04T12:05:03.132Z,1.2
2018-02-04T12:10:02.707Z,1.2
2018-02-04T12:15:03.334Z,1.3
2018-02-04T12:20:02.956Z,1.3
2018-02-04T12:25:02.622Z,1.3
2018-02-04T12:30:03.131Z,1.3
2018-02-04T12:35:02.580Z,1.3
2018-02-04T12:40:03.190Z,1.2
2018-02-04T12:45:02.817Z,1.2
2018-02-04T12:50:02.351Z,1.2
2018-02-04T12:55:02.883Z,1.3
2018-02-04T13:00:02.517Z,1.3
2018-02-04T13:05:03.134Z,1.6
2018-02-04T13:10:02.727Z,1.6
2018-02-04T13:15:02.478Z,1.6
2018-02-04T13:20:03.132Z,1.6
2018-02-04T13:25:02.777Z,1.6
2018-02-04T13:30:03.347Z,1.6
2018-02-04T13:35:02.977Z,2.2
2018-02-04T13:40:02.525Z,2.0
2018-02-04T13:45:03.093Z,1.8
2018-02-04T13:50:02.609Z,1.8
2018-02-04T13:55:03.189Z,1.8
2018-02-04T14:00:02.730Z,1.7
2018-02-04T14:05:02.420Z,1.6
2018-02-04T14:10:03.020Z,2.4
2018-02-04T14:15:02.592Z,2.5
2018-02-04T14:20:03.146Z,2.2
2018-02-04T14:25:02.568Z,2.2
2018-02-04T14:30:03.049Z,2.2
2018-02-04T14:35:02.571Z,3.0
2018-02-04T14:40:03.232Z,3.5
2018-02-04T14:45:02.813Z,2.5
2018-02-04T14:50:03.325Z,2.5
2018-02-04T14:55:03.041Z,2.4
2018-02-04T15:00:02.688Z,2.0
2018-02-04T15:05:02.519Z,1.8
2018-02-04T15:10:03.063Z,1.8
2018-02-04T15:15:02.682Z,1.8
2018-02-04T15:20:03.216Z,1.7
2018-02-04T15:25:02.980Z,1.7
2018-02-04T15:30:02.564Z,1.6
2018-02-04T15:35:03.204Z,1.6
2018-02-04T15:40:02.838Z,1.3
2018-02-04T15:45:02.749Z,1.3
2018-02-04T15:50:03.312Z,1.3
2018-02-04T15:55:03.007Z,1.3
2018-02-04T16:00:02.765Z,1.3
2018-02-04T16:05:03.365Z,1.3
2018-02-04T16:10:02.953Z,1.3
2018-02-04T16:15:02.452Z,1.3
2018-02-04T16:20:02.956Z,1.1
2018-02-04T16:25:02.592Z,1.1
2018-02-04T16:30:03.281Z,0.8
2018-02-04T16:35:02.931Z,0.8
2018-02-04T16:40:02.645Z,0.7
2018-02-04T16:45:02.460Z,0.7
2018-02-04T16:50:02.986Z,0.7
2018-02-04T16:55:02.538Z,0.7
2018-02-04T17:00:03.040Z,0.6
2018-02-04T17:05:02.778Z,0.6
2018-02-04T17:10:02.443Z,0.7
2018-02-04T17:15:03.112Z,0.7
2018-02-04T17:20:02.777Z,0.6
2018-02-04T17:25:03.355Z,0.7
2018-02-04T17:30:02.849Z,0.7
2018-02-04T17:35:02.461Z,0.7
2018-02-04T17:40:03.069Z,0.7
2018-02-04T17:45:02.759Z,0.6
2018-02-04T17:50:03.363Z,0.7
2018-02-04T17:55:02.873Z,0.6
2018-02-04T18:00:02.608Z,0.6
2018-02-04T18:05:03.209Z,0.6
2018-02-04T18:10:02.724Z,0.6
2018-02-04T18:15:03.367Z,0.6
2018-02-04T18:20:03.091Z,0.6
2018-02-04T18:25:02.698Z,0.7
2018-02-04T18:30:03.208Z,0.7
2018-02-04T18:35:02.902Z,0.7
2018-02-04T18:40:02.778Z,0.7
2018-02-04T18:45:03.393Z,0.7
2018-02-04T18:50:02.865Z,0.7
2018-02-04T18:55:02.529Z,0.7
2018-02-04T19:05:02.913Z,0.7
2018-02-04T19:10:02.609Z,0.7
2018-02-04T19:15:03.152Z,0.7
2018-02-04T19:20:02.706Z,0.8
2018-02-04T19:25:03.227Z,0.7
2018-02-04T19:30:02.720Z,0.7
2018-02-04T19:35:02.469Z,0.8
2018-02-04T19:40:03.234Z,0.7
2018-02-04T19:45:02.896Z,0.8
2018-02-04T19:50:02.409Z,0.7
2018-02-04T19:55:03.064Z,0.7
2018-02-04T20:00:02.791Z,0.6
2018-02-04T20:05:02.565Z,0.6
2018-02-04T20:10:03.228Z,0.6
2018-02-04T20:15:02.787Z,0.6
2018-02-04T20:20:03.337Z,0.6
2018-02-04T20:25:02.890Z,0.6
2018-02-04T20:30:03.334Z,0.6
2018-02-04T20:35:02.938Z,0.6
2018-02-04T20:40:02.497Z,0.6
2018-02-04T20:45:03.099Z,0.6
2018-02-04T20:50:02.868Z,0.7
2018-02-04T20:55:02.537Z,0.7
2018-02-04T21:00:03.197Z,0.7
2018-02-04T21:05:02.777Z,0.7
2018-02-04T21:10:02.409Z,0.7
2018-02-04T21:15:02.983Z,0.7
2018-02-04T21:20:02.795Z,0.7
2018-02-04T21:25:03.309Z,0.7
2018-02-04T21:30:02.930Z,0.8
2018-02-04T21:35:02.443Z,0.8
2018-02-04T21:40:03.039Z,0.8
2018-02-04T21:45:02.606Z,0.7
2018-02-04T21:50:03.038Z,0.8
2018-02-04T21:55:02.643Z,0.8
2018-02-04T22:00:03.192Z,0.8
2018-02-04T22:05:02.632Z,0.7
2018-02-04T22:10:03.235Z,0.7
2018-02-04T22:15:02.683Z,0.7
2018-02-04T22:20:03.266Z,0.7
2018-02-04T22:25:02.918Z,0.7
2018-02-04T22:30:02.672Z,0.7
2018-02-04T22:35:03.328Z,0.7
2018-02-04T22:40:02.968Z,0.7
2018-02-04T22:45:02.590Z,0.7
2018-02-04T22:50:03.179Z,0.7
2018-02-04T22:55:02.835Z,0.7
2018-02-04T23:00:02.475Z,0.7
2018-02-04T23:05:02.951Z,0.7
2018-02-04T23:10:02.557Z,0.6
2018-02-04T23:15:03.042Z,0.6
2018-02-04T23:20:02.782Z,0.7
2018-02-04T23:25:03.283Z,0.6
2018-02-04T23:30:02.855Z,0.6
2018-02-04T23:35:02.444Z,0.6
2018-02-04T23:40:03.142Z,0.6
2018-02-04T23:45:02.704Z,0.7
2018-02-04T23:50:03.178Z,0.7
2018-02-04T23:55:02.715Z,0.7
